Time;durP1;ratioP1;P1;durP2;ratioP2;P2;SDS_P1;SDS_P2;PMS_P1;PMS_P2;Temp;Humidity;BMP_temperature;BMP_pressure;BME280_temperature;BME280_humidity;BME280_pressure;Samples;Min_cycle;Max_cycle;Signal;HPM_P1;HPM_P2
2022/12/09 00:01:07;;;;;;;;;;;2.20;98.30;;;;;;4993711;28;1764;-72
2022/12/09 00:03:34;;;;;;;;;;;2.10;98.30;;;;;;4992994;28;1304;-72
2022/12/09 00:06:05;;;;;;;;;;;2.00;98.60;;;;;;4993167;28;1013;-73
2022/12/09 00:08:35;;;;;;;;;;;2.00;98.70;;;;;;4991585;28;1524;-72
2022/12/09 00:11:03;;;;;;;;;;;1.90;98.80;;;;;;4993575;28;1963;-73
2022/12/09 00:13:31;;;;;;;;;;;2.10;98.40;;;;;;4993191;28;1291;-73
2022/12/09 00:15:58;;;;;;;;;;;2.10;98.20;;;;;;4993153;28;1131;-74
2022/12/09 00:18:26;;;;;;;;;;;2.10;98.00;;;;;;4992851;28;1044;-74
2022/12/09 00:20:54;;;;;;;;;;;2.00;98.40;;;;;;4993613;28;1654;-73
2022/12/09 00:23:22;;;;;;;;;;;2.00;98.70;;;;;;4993920;28;1343;-73
2022/12/09 00:25:51;;;;;;;;;;;1.90;98.70;;;;;;4997243;28;1207;-69
2022/12/09 00:28:18;;;;;;;;;;;1.90;98.90;;;;;;4995960;28;1281;-72
2022/12/09 00:30:46;;;;;;;;;;;2.10;98.80;;;;;;4997036;28;1991;-72
2022/12/09 00:33:14;;;;;;;;;;;2.00;98.50;;;;;;4996361;28;1351;-74
2022/12/09 00:35:42;;;;;;;;;;;1.90;98.50;;;;;;4996394;28;1014;-73
2022/12/09 00:38:09;;;;;;;;;;;1.70;98.80;;;;;;5000364;28;1114;-74
2022/12/09 00:40:37;;;;;;;;;;;1.80;99.20;;;;;;4997061;28;1075;-74
2022/12/09 00:43:06;;;;;;;;;;;1.60;98.80;;;;;;4995761;28;1265;-71
2022/12/09 00:45:34;;;;;;;;;;;1.60;99.20;;;;;;4993859;28;1720;-72
2022/12/09 00:48:01;;;;;;;;;;;1.50;99.50;;;;;;4995557;28;1343;-72
2022/12/09 00:50:29;;;;;;;;;;;1.70;99.00;;;;;;4996643;28;1914;-74
2022/12/09 00:52:57;;;;;;;;;;;1.80;98.50;;;;;;4996718;28;1291;-72
2022/12/09 00:55:24;;;;;;;;;;;1.70;98.40;;;;;;4995733;28;1145;-74
2022/12/09 00:57:52;;;;;;;;;;;1.70;98.50;;;;;;4996112;28;1018;-74
2022/12/09 01:00:21;;;;;;;;;;;1.70;98.40;;;;;;4996984;28;1062;-71
2022/12/09 01:02:49;;;;;;;;;;;1.70;98.40;;;;;;4996542;28;1267;-74
2022/12/09 01:05:17;;;;;;;;;;;1.70;98.40;;;;;;4996893;28;1081;-69
2022/12/09 01:07:45;;;;;;;;;;;1.90;98.50;;;;;;4995477;28;1972;-74
2022/12/09 01:10:12;;;;;;;;;;;1.30;99.10;;;;;;4994926;28;1949;-75
2022/12/09 01:12:40;;;;;;;;;;;1.20;99.70;;;;;;4994448;28;1754;-74
2022/12/09 01:15:08;;;;;;;;;;;1.20;99.40;;;;;;4994849;28;1754;-77
2022/12/09 01:17:38;;;;;;;;;;;1.10;99.90;;;;;;4995396;28;1706;-76
2022/12/09 01:20:07;;;;;;;;;;;1.00;99.90;;;;;;4995786;28;1147;-75
2022/12/09 01:22:36;;;;;;;;;;;1.00;99.90;;;;;;4994868;28;1404;-77
2022/12/09 01:25:04;;;;;;;;;;;1.00;99.90;;;;;;4995471;28;1104;-76
2022/12/09 01:27:32;;;;;;;;;;;0.90;99.90;;;;;;4995367;28;1276;-75
2022/12/09 01:29:59;;;;;;;;;;;0.90;99.90;;;;;;4994218;28;1906;-76
2022/12/09 01:32:27;;;;;;;;;;;1.00;99.90;;;;;;4995317;28;1287;-74
2022/12/09 01:34:56;;;;;;;;;;;0.90;99.90;;;;;;4994099;28;1172;-74
2022/12/09 01:37:24;;;;;;;;;;;0.90;99.90;;;;;;4994456;28;1687;-72
2022/12/09 01:39:51;;;;;;;;;;;0.90;99.90;;;;;;4991989;28;2057;-70
2022/12/09 01:42:21;;;;;;;;;;;1.10;99.90;;;;;;4994985;28;1826;-71
2022/12/09 01:45:08;;;;;;;;;;;1.40;99.90;;;;;;4994438;28;1299;-70
2022/12/09 01:47:35;;;;;;;;;;;1.30;99.60;;;;;;4996045;28;1195;-72
2022/12/09 01:50:05;;;;;;;;;;;1.40;99.30;;;;;;4993932;28;1915;-71
2022/12/09 01:52:33;;;;;;;;;;;1.50;99.10;;;;;;4994394;28;1300;-71
2022/12/09 01:55:01;;;;;;;;;;;1.60;99.00;;;;;;4995035;28;1089;-72
2022/12/09 01:57:29;;;;;;;;;;;1.50;99.10;;;;;;4994699;28;1698;-72
2022/12/09 01:59:57;;;;;;;;;;;1.40;99.40;;;;;;4993529;28;1772;-74
2022/12/09 02:02:26;;;;;;;;;;;1.50;99.20;;;;;;4994915;28;1428;-75
2022/12/09 02:04:54;;;;;;;;;;;1.60;99.20;;;;;;4995441;28;1788;-76
2022/12/09 02:07:24;;;;;;;;;;;1.60;99.20;;;;;;4994511;28;1082;-76
2022/12/09 02:09:52;;;;;;;;;;;1.60;99.10;;;;;;4995314;28;995;-75
2022/12/09 02:12:24;;;;;;;;;;;1.70;99.20;;;;;;4995144;28;1973;-75
2022/12/09 02:17:31;;;;;;;;;;;1.90;98.80;;;;;;5299309;23;1944;-85
2022/12/09 02:20:03;;;;;;;;;;;1.90;98.70;;;;;;4973578;28;1621;-87
2022/12/09 02:22:35;;;;;;;;;;;1.90;98.90;;;;;;4970929;28;1553;-86
2022/12/09 02:25:09;;;;;;;;;;;1.80;98.70;;;;;;4963021;29;1249;-87
2022/12/09 02:27:42;;;;;;;;;;;1.70;99.10;;;;;;4979553;28;1352;-87
2022/12/09 02:30:14;;;;;;;;;;;1.80;98.70;;;;;;4978103;28;1976;-87
2022/12/09 02:32:49;;;;;;;;;;;2.00;98.90;;;;;;4970931;28;1711;-87
2022/12/09 02:35:20;;;;;;;;;;;2.00;98.80;;;;;;4969662;28;1056;-88
2022/12/09 02:37:50;;;;;;;;;;;2.00;98.70;;;;;;4969268;28;1355;-86
2022/12/09 02:40:20;;;;;;;;;;;1.90;99.10;;;;;;4961023;29;978;-87
2022/12/09 02:42:48;;;;;;;;;;;1.90;98.90;;;;;;4961586;29;994;-87
2022/12/09 02:45:17;;;;;;;;;;;1.90;98.80;;;;;;4961420;29;1087;-88
2022/12/09 02:47:47;;;;;;;;;;;1.90;98.80;;;;;;4960741;28;1437;-87
2022/12/09 02:50:17;;;;;;;;;;;2.30;99.10;;;;;;4966441;28;1001;-88
2022/12/09 02:52:47;;;;;;;;;;;1.90;98.90;;;;;;4965081;28;1006;-87
2022/12/09 02:55:16;;;;;;;;;;;2.00;98.90;;;;;;4969552;28;1193;-88
2022/12/09 02:57:44;;;;;;;;;;;2.00;99.00;;;;;;4970882;28;1391;-87
2022/12/09 03:00:13;;;;;;;;;;;2.10;98.60;;;;;;4972014;28;1530;-85
2022/12/09 03:02:43;;;;;;;;;;;1.90;98.60;;;;;;4970543;28;1089;-86
2022/12/09 03:05:14;;;;;;;;;;;1.90;98.40;;;;;;4969441;28;1576;-87
2022/12/09 03:07:43;;;;;;;;;;;2.20;98.80;;;;;;4976398;28;1486;-87
2022/12/09 03:10:16;;;;;;;;;;;2.00;98.60;;;;;;4970180;28;1596;-88
2022/12/09 03:12:47;;;;;;;;;;;2.10;98.70;;;;;;4971598;28;1903;-88
2022/12/09 03:15:17;;;;;;;;;;;2.00;98.70;;;;;;4965247;29;1493;-87
2022/12/09 03:17:45;;;;;;;;;;;2.20;98.40;;;;;;4961630;28;1391;-87
2022/12/09 03:20:15;;;;;;;;;;;2.10;98.00;;;;;;4971255;28;1009;-86
2022/12/09 03:22:44;;;;;;;;;;;2.00;98.60;;;;;;4959610;29;1064;-86
2022/12/09 03:25:15;;;;;;;;;;;1.90;98.70;;;;;;4967778;28;1486;-87
2022/12/09 03:27:46;;;;;;;;;;;2.10;98.70;;;;;;4960246;28;1337;-86
2022/12/09 03:30:15;;;;;;;;;;;2.20;98.70;;;;;;4974067;28;1029;-87
2022/12/09 03:32:43;;;;;;;;;;;2.00;98.20;;;;;;4968699;28;1994;-87
2022/12/09 03:35:13;;;;;;;;;;;2.00;98.70;;;;;;4974717;28;970;-87
2022/12/09 03:37:41;;;;;;;;;;;2.10;98.20;;;;;;4959237;28;1531;-87
2022/12/09 03:40:12;;;;;;;;;;;2.20;98.30;;;;;;4958232;29;1446;-88
2022/12/09 03:42:47;;;;;;;;;;;2.20;98.00;;;;;;4959753;29;1557;-86
2022/12/09 03:45:15;;;;;;;;;;;2.10;98.20;;;;;;4960754;29;1052;-85
2022/12/09 03:47:44;;;;;;;;;;;1.90;98.20;;;;;;4960476;28;1329;-86
2022/12/09 03:50:12;;;;;;;;;;;1.90;98.00;;;;;;4968111;28;1414;-87
2022/12/09 03:52:41;;;;;;;;;;;1.90;98.40;;;;;;4962844;28;1898;-88
2022/12/09 03:55:13;;;;;;;;;;;1.90;98.30;;;;;;4965900;28;1010;-87
2022/12/09 03:57:42;;;;;;;;;;;1.80;98.60;;;;;;4966934;28;1667;-87
2022/12/09 04:00:11;;;;;;;;;;;1.80;98.30;;;;;;4976647;28;994;-88
2022/12/09 04:02:40;;;;;;;;;;;1.90;98.50;;;;;;4964711;29;1588;-85
2022/12/09 04:05:08;;;;;;;;;;;1.80;98.00;;;;;;4964678;29;1021;-87
2022/12/09 04:07:36;;;;;;;;;;;1.80;98.30;;;;;;4964278;28;1382;-87
2022/12/09 04:10:05;;;;;;;;;;;1.80;98.30;;;;;;4965376;29;1103;-87
2022/12/09 04:12:33;;;;;;;;;;;1.70;98.90;;;;;;4965722;28;1976;-88
2022/12/09 04:15:01;;;;;;;;;;;1.70;98.20;;;;;;4975956;28;1028;-86
2022/12/09 04:17:30;;;;;;;;;;;1.70;98.30;;;;;;4983886;28;1543;-85
2022/12/09 04:19:58;;;;;;;;;;;1.60;98.50;;;;;;4996465;28;2222;-88
2022/12/09 04:22:26;;;;;;;;;;;1.60;98.20;;;;;;4979772;28;1427;-88
2022/12/09 04:24:54;;;;;;;;;;;1.50;98.30;;;;;;4965331;29;1400;-88
2022/12/09 04:27:22;;;;;;;;;;;1.50;98.70;;;;;;4964496;28;1610;-89
2022/12/09 04:29:49;;;;;;;;;;;1.60;98.80;;;;;;4964563;29;1407;-88
2022/12/09 04:32:17;;;;;;;;;;;1.80;98.80;;;;;;4963472;29;1907;-87
2022/12/09 04:34:47;;;;;;;;;;;1.90;98.60;;;;;;4964339;29;1029;-90
2022/12/09 04:37:15;;;;;;;;;;;1.70;99.00;;;;;;4973022;28;1277;-87
2022/12/09 04:39:43;;;;;;;;;;;1.70;98.80;;;;;;4965395;29;987;-87
2022/12/09 04:42:11;;;;;;;;;;;1.70;98.70;;;;;;4965499;29;1760;-89
2022/12/09 04:44:38;;;;;;;;;;;1.70;98.80;;;;;;4966851;29;1709;-87
2022/12/09 04:47:06;;;;;;;;;;;1.70;98.50;;;;;;4972085;29;1550;-87
2022/12/09 04:49:34;;;;;;;;;;;1.40;98.40;;;;;;4981578;28;1429;-86
2022/12/09 04:52:03;;;;;;;;;;;1.20;98.40;;;;;;4983121;28;1966;-87
2022/12/09 04:54:31;;;;;;;;;;;1.20;98.90;;;;;;4979176;28;1764;-87
2022/12/09 04:56:59;;;;;;;;;;;1.10;99.00;;;;;;4974758;28;1033;-86
2022/12/09 04:59:29;;;;;;;;;;;1.00;98.80;;;;;;4970626;28;1547;-87
2022/12/09 05:01:56;;;;;;;;;;;0.90;99.30;;;;;;4979583;28;942;-87
2022/12/09 05:04:24;;;;;;;;;;;0.90;99.10;;;;;;4971929;28;1006;-87
2022/12/09 05:06:52;;;;;;;;;;;0.80;99.20;;;;;;4974859;28;981;-85
2022/12/09 05:09:22;;;;;;;;;;;0.80;99.00;;;;;;4970754;28;1502;-87
2022/12/09 05:11:52;;;;;;;;;;;0.70;99.50;;;;;;4972755;28;1902;-90
2022/12/09 05:14:20;;;;;;;;;;;1.00;98.90;;;;;;4981271;28;1070;-90
2022/12/09 05:16:48;;;;;;;;;;;0.80;99.20;;;;;;4977868;28;1506;-89
2022/12/09 05:19:16;;;;;;;;;;;0.90;99.40;;;;;;4982301;28;1550;-89
2022/12/09 05:21:45;;;;;;;;;;;0.90;99.50;;;;;;4972546;28;1537;-88
2022/12/09 05:24:13;;;;;;;;;;;0.90;99.70;;;;;;4972613;28;1565;-86
2022/12/09 05:26:42;;;;;;;;;;;1.10;99.90;;;;;;4980094;28;918;-88
2022/12/09 05:29:10;;;;;;;;;;;0.90;99.90;;;;;;4988770;28;1317;-88
2022/12/09 05:31:38;;;;;;;;;;;0.80;99.90;;;;;;4985943;28;875;-88
2022/12/09 05:34:06;;;;;;;;;;;0.80;99.90;;;;;;4974090;28;1988;-86
2022/12/09 05:36:42;;;;;;;;;;;0.90;99.90;;;;;;4974595;28;1074;-85
2022/12/09 05:39:10;;;;;;;;;;;0.80;99.90;;;;;;4963610;28;1562;-87
2022/12/09 05:41:39;;;;;;;;;;;1.10;99.90;;;;;;4964050;29;1557;-88
2022/12/09 05:44:09;;;;;;;;;;;0.90;99.90;;;;;;4963259;28;1177;-87
2022/12/09 05:46:37;;;;;;;;;;;1.00;99.90;;;;;;4963429;29;1597;-87
2022/12/09 05:49:05;;;;;;;;;;;1.00;99.90;;;;;;4963002;28;1316;-87
2022/12/09 05:51:34;;;;;;;;;;;1.10;99.90;;;;;;4962960;29;1393;-90
2022/12/09 05:54:06;;;;;;;;;;;1.50;99.90;;;;;;4968453;29;1891;-90
2022/12/09 05:56:48;;;;;;;;;;;1.40;99.90;;;;;;4970866;28;1434;-91
2022/12/09 05:59:20;;;;;;;;;;;1.50;99.10;;;;;;4981421;28;1426;-88
2022/12/09 06:01:48;;;;;;;;;;;1.60;99.20;;;;;;4993711;28;1454;-91
2022/12/09 06:04:16;;;;;;;;;;;1.70;98.60;;;;;;4981007;28;1636;-86
2022/12/09 06:06:44;;;;;;;;;;;1.60;98.50;;;;;;4962803;28;1025;-87
2022/12/09 06:09:12;;;;;;;;;;;1.40;99.20;;;;;;4981687;28;1730;-87
2022/12/09 06:11:40;;;;;;;;;;;1.20;99.90;;;;;;4967656;28;1080;-87
2022/12/09 06:14:10;;;;;;;;;;;1.20;99.90;;;;;;4978815;28;1883;-87
2022/12/09 06:16:40;;;;;;;;;;;1.30;99.90;;;;;;4970873;28;1342;-89
2022/12/09 06:19:10;;;;;;;;;;;1.00;99.90;;;;;;4981757;28;1533;-90
2022/12/09 06:21:39;;;;;;;;;;;1.60;99.90;;;;;;4980294;28;1744;-89
2022/12/09 06:24:07;;;;;;;;;;;1.80;98.80;;;;;;4981517;28;1566;-91
2022/12/09 06:26:37;;;;;;;;;;;1.80;98.80;;;;;;4987327;28;2206;-88
2022/12/09 06:29:06;;;;;;;;;;;1.90;98.30;;;;;;4999896;28;1606;-90
2022/12/09 06:31:34;;;;;;;;;;;1.90;98.10;;;;;;5000824;28;1408;-90
2022/12/09 06:34:04;;;;;;;;;;;1.90;97.90;;;;;;4999929;28;1887;-89
2022/12/09 06:36:32;;;;;;;;;;;2.00;98.40;;;;;;4991280;28;1721;-89
2022/12/09 06:39:03;;;;;;;;;;;1.80;97.90;;;;;;4982339;28;1545;-87
2022/12/09 06:41:38;;;;;;;;;;;1.90;98.60;;;;;;4992363;28;1620;-88
2022/12/09 06:44:07;;;;;;;;;;;2.00;98.50;;;;;;4992465;28;1415;-90
2022/12/09 06:46:37;;;;;;;;;;;2.00;98.00;;;;;;4992676;28;1731;-90
2022/12/09 06:49:07;;;;;;;;;;;1.90;97.90;;;;;;4991028;28;1281;-89
2022/12/09 06:51:35;;;;;;;;;;;2.10;98.50;;;;;;4990940;28;2476;-91
2022/12/09 06:54:03;;;;;;;;;;;2.10;97.80;;;;;;4989123;28;1978;-90
2022/12/09 06:56:32;;;;;;;;;;;2.20;97.90;;;;;;4978720;28;1368;-91
2022/12/09 06:59:00;;;;;;;;;;;2.20;97.80;;;;;;4982306;28;1587;-89
2022/12/09 07:01:28;;;;;;;;;;;2.10;97.70;;;;;;4976088;28;2337;-88
2022/12/09 07:03:56;;;;;;;;;;;2.10;97.70;;;;;;4977485;28;1420;-90
2022/12/09 07:06:27;;;;;;;;;;;2.20;97.70;;;;;;4975642;29;1584;-91
2022/12/09 07:09:02;;;;;;;;;;;2.20;97.90;;;;;;4975137;28;1403;-91
2022/12/09 07:11:30;;;;;;;;;;;2.40;97.90;;;;;;4974933;28;1743;-90
2022/12/09 07:14:01;;;;;;;;;;;2.20;97.60;;;;;;4984445;28;1891;-87
2022/12/09 07:16:33;;;;;;;;;;;2.20;97.60;;;;;;4972544;28;1660;-89
2022/12/09 07:19:02;;;;;;;;;;;2.20;97.50;;;;;;4974325;28;1522;-90
2022/12/09 07:21:32;;;;;;;;;;;2.60;98.10;;;;;;4973953;29;1587;-87
2022/12/09 07:24:01;;;;;;;;;;;2.50;98.00;;;;;;4986926;28;2369;-90
2022/12/09 07:26:33;;;;;;;;;;;2.30;97.80;;;;;;4996874;28;1523;-88
2022/12/09 07:29:05;;;;;;;;;;;2.30;97.80;;;;;;4988535;28;2376;-90
2022/12/09 07:31:33;;;;;;;;;;;2.40;97.90;;;;;;4981793;28;1411;-88
2022/12/09 07:34:03;;;;;;;;;;;2.30;97.60;;;;;;4961604;28;1906;-87
2022/12/09 07:36:44;;;;;;;;;;;2.30;97.70;;;;;;4976890;28;1590;-87
2022/12/09 07:39:18;;;;;;;;;;;2.20;98.10;;;;;;4974500;28;1559;-88
2022/12/09 07:41:47;;;;;;;;;;;2.10;97.80;;;;;;4972207;28;1527;-87
2022/12/09 07:44:15;;;;;;;;;;;2.10;98.10;;;;;;4963946;29;1588;-87
2022/12/09 07:46:44;;;;;;;;;;;2.20;97.70;;;;;;4966275;28;1628;-86
2022/12/09 07:49:12;;;;;;;;;;;2.30;97.40;;;;;;4974527;28;1403;-85
2022/12/09 07:51:42;;;;;;;;;;;2.20;97.30;;;;;;4979288;28;1579;-86
2022/12/09 07:54:11;;;;;;;;;;;2.10;98.10;;;;;;4971740;28;1879;-86
2022/12/09 07:56:40;;;;;;;;;;;2.20;98.20;;;;;;4977686;28;978;-88
2022/12/09 07:59:08;;;;;;;;;;;2.30;97.70;;;;;;4980822;28;1658;-88
2022/12/09 08:01:36;;;;;;;;;;;2.50;97.80;;;;;;4977713;28;1348;-88
2022/12/09 08:04:05;;;;;;;;;;;2.30;97.00;;;;;;4963152;29;1756;-87
2022/12/09 08:06:34;;;;;;;;;;;2.60;97.70;;;;;;4972502;28;1534;-86
2022/12/09 08:09:04;;;;;;;;;;;2.40;97.10;;;;;;4970070;28;1497;-86
2022/12/09 08:11:42;;;;;;;;;;;2.30;97.50;;;;;;4963774;28;1363;-86
2022/12/09 08:14:11;;;;;;;;;;;2.30;97.80;;;;;;4974565;28;1914;-85
2022/12/09 08:16:41;;;;;;;;;;;2.30;97.30;;;;;;4973983;28;1260;-88
2022/12/09 08:19:10;;;;;;;;;;;2.30;97.40;;;;;;4978416;28;1585;-90
2022/12/09 08:21:42;;;;;;;;;;;2.20;97.20;;;;;;4973616;28;1596;-88
2022/12/09 08:24:16;;;;;;;;;;;2.20;97.50;;;;;;4979043;28;1535;-87
2022/12/09 08:26:44;;;;;;;;;;;2.10;97.90;;;;;;4974763;28;1521;-87
2022/12/09 08:29:13;;;;;;;;;;;2.10;97.60;;;;;;4977771;28;1668;-87
2022/12/09 08:31:47;;;;;;;;;;;2.40;97.70;;;;;;4970984;28;1426;-86
2022/12/09 08:34:16;;;;;;;;;;;1.80;97.80;;;;;;4962247;29;1891;-89
2022/12/09 08:36:45;;;;;;;;;;;2.20;97.30;;;;;;4976554;28;1552;-86
2022/12/09 08:39:31;;;;;;;;;;;2.10;97.90;;;;;;4975437;28;1601;-88
2022/12/09 08:42:16;;;;;;;;;;;2.10;98.10;;;;;;4973898;28;1700;-88
2022/12/09 08:44:53;;;;;;;;;;;2.10;98.00;;;;;;4978566;28;1434;-85
2022/12/09 08:47:41;;;;;;;;;;;;;;;;;;;;;
2022/12/09 08:50:19;;;;;;;;;;;2.30;97.40;;;;;;4966959;28;1065;-86
2022/12/09 08:53:14;;;;;;;;;;;2.10;97.30;;;;;;4966320;29;1501;-86
2022/12/09 08:59:13;;;;;;;;;;;2.20;97.60;;;;;;4981171;28;1511;-86
2022/12/09 09:08:03;;;;;;;;;;;2.10;98.10;;;;;;4891743;29;1329;-85
2022/12/09 09:20:51;;;;;;;;;;;2.10;98.30;;;;;;4859269;29;1087;-87
2022/12/09 09:23:19;;;;;;;;;;;2.10;98.40;;;;;;4879715;29;1840;-86
2022/12/09 09:28:47;;;;;;;;;;;2.40;98.20;;;;;;4848850;29;1443;-87
2022/12/09 09:31:38;;;;;;;;;;;2.30;98.00;;;;;;4837763;29;1541;-86
2022/12/09 09:34:20;;;;;;;;;;;2.20;98.10;;;;;;4871000;29;1911;-87
2022/12/09 09:37:17;;;;;;;;;;;2.50;98.00;;;;;;4869641;29;1706;-88
2022/12/09 09:39:55;;;;;;;;;;;2.30;98.00;;;;;;4970802;28;950;-87
2022/12/09 09:42:29;;;;;;;;;;;2.60;97.60;;;;;;4980288;28;1688;-90
2022/12/09 09:45:40;;;;;;;;;;;;;;;;;;;;;
2022/12/09 09:48:14;;;;;;;;;;;2.40;97.70;;;;;;4981021;28;1599;-90
2022/12/09 09:50:51;;;;;;;;;;;2.20;98.10;;;;;;4990923;28;1411;-87
2022/12/09 09:53:24;;;;;;;;;;;2.20;98.20;;;;;;4997635;28;1685;-91
2022/12/09 09:56:05;;;;;;;;;;;2.10;98.20;;;;;;4986036;28;1906;-87
2022/12/09 09:59:22;;;;;;;;;;;2.00;98.00;;;;;;4972192;28;1727;-93
2022/12/09 10:04:52;;;;;;;;;;;1.90;98.30;;;;;;4980847;28;1692;-87
2022/12/09 10:10:59;;;;;;;;;;;1.90;98.60;;;;;;4982005;28;1735;-90
2022/12/09 10:13:44;;;;;;;;;;;1.70;98.80;;;;;;4968258;28;1547;-90
2022/12/09 10:16:16;;;;;;;;;;;1.70;99.50;;;;;;4986853;23;3607;-71
2022/12/09 10:18:54;;;;;;;;;;;1.80;99.30;;;;;;4973046;28;1351;-70
2022/12/09 10:21:23;;;;;;;;;;;1.80;99.30;;;;;;4975621;28;1011;-70
2022/12/09 10:23:53;;;;;;;;;;;1.90;99.40;;;;;;4973934;28;1658;-70
2022/12/09 10:26:23;;;;;;;;;;;1.70;99.30;;;;;;4973506;28;1118;-70
2022/12/09 10:28:55;;;;;;;;;;;1.80;99.10;;;;;;4974708;28;1031;-69
2022/12/09 10:31:23;;;;;;;;;;;1.80;99.00;;;;;;4973690;28;1394;-69
2022/12/09 10:33:51;;;;;;;;;;;1.80;99.30;;;;;;4974402;28;1295;-70
2022/12/09 10:36:22;;;;;;;;;;;1.80;99.20;;;;;;4975213;28;1899;-71
2022/12/09 10:38:51;;;;;;;;;;;1.90;99.00;;;;;;4974632;28;1691;-70
2022/12/09 10:44:19;;;;;;;;;;;2.00;99.00;;;;;;4975473;28;1355;-72
2022/12/09 10:46:48;;;;;;;;;;;2.00;99.10;;;;;;4974571;28;1078;-71
2022/12/09 10:49:18;;;;;;;;;;;2.00;98.90;;;;;;4976190;28;1529;-70
2022/12/09 10:51:48;;;;;;;;;;;2.00;98.90;;;;;;4974863;28;1168;-72
2022/12/09 10:54:23;;;;;;;;;;;2.10;98.70;;;;;;4975120;28;1504;-71
2022/12/09 10:57:02;;;;;;;;;;;2.10;98.70;;;;;;4974860;28;1923;-70
2022/12/09 10:59:32;;;;;;;;;;;2.10;98.70;;;;;;4974503;28;1339;-71
2022/12/09 11:02:01;;;;;;;;;;;2.10;98.70;;;;;;4974886;28;1673;-71
2022/12/09 11:04:30;;;;;;;;;;;2.20;98.20;;;;;;4974031;28;1296;-72
2022/12/09 11:07:01;;;;;;;;;;;2.20;98.40;;;;;;4976477;28;1141;-70
2022/12/09 11:09:31;;;;;;;;;;;2.20;98.40;;;;;;4976703;28;1513;-71
2022/12/09 11:12:00;;;;;;;;;;;2.20;98.60;;;;;;4975754;28;995;-71
2022/12/09 11:14:31;;;;;;;;;;;2.10;98.50;;;;;;4976910;28;1972;-71
2022/12/09 11:17:12;;;;;;;;;;;2.10;98.30;;;;;;4976639;28;1895;-71
2022/12/09 11:19:41;;;;;;;;;;;2.40;98.60;;;;;;4975747;28;1670;-71
2022/12/09 11:22:13;;;;;;;;;;;2.10;98.30;;;;;;4976265;28;1388;-71
2022/12/09 11:24:41;;;;;;;;;;;2.10;98.40;;;;;;4976006;28;1176;-71
2022/12/09 11:27:23;;;;;;;;;;;2.10;98.30;;;;;;4978763;28;1046;-70
2022/12/09 11:30:04;;;;;;;;;;;2.00;98.10;;;;;;4977234;28;1453;-70
2022/12/09 11:32:52;;;;;;;;;;;2.00;98.30;;;;;;4975284;28;1880;-69
2022/12/09 11:35:24;;;;;;;;;;;2.00;98.30;;;;;;4976151;28;1903;-70
2022/12/09 11:37:52;;;;;;;;;;;2.10;98.20;;;;;;4974272;28;950;-69
2022/12/09 11:40:20;;;;;;;;;;;2.00;98.40;;;;;;4974637;28;1298;-70
2022/12/09 11:42:49;;;;;;;;;;;2.00;98.40;;;;;;4973790;28;1331;-69
2022/12/09 11:45:19;;;;;;;;;;;2.00;98.60;;;;;;4971486;28;1612;-69
2022/12/09 11:47:55;;;;;;;;;;;2.10;98.60;;;;;;4971869;28;995;-74
2022/12/09 11:50:48;;;;;;;;;;;2.10;98.70;;;;;;4973084;28;1641;-74
2022/12/09 11:53:24;;;;;;;;;;;2.20;98.60;;;;;;4971937;28;1687;-73
2022/12/09 11:55:53;;;;;;;;;;;2.20;98.40;;;;;;4972096;28;1993;-72
2022/12/09 11:58:24;;;;;;;;;;;2.20;98.40;;;;;;4973454;28;1641;-74
2022/12/09 12:00:55;;;;;;;;;;;2.20;98.30;;;;;;4973042;28;1141;-73
2022/12/09 12:03:26;;;;;;;;;;;2.20;98.30;;;;;;4974224;28;1274;-73
2022/12/09 12:05:57;;;;;;;;;;;2.20;98.20;;;;;;4973871;28;1137;-73
2022/12/09 12:08:27;;;;;;;;;;;2.20;98.00;;;;;;4972964;28;1501;-74
2022/12/09 12:10:57;;;;;;;;;;;2.40;98.20;;;;;;4974169;28;1176;-73
2022/12/09 12:13:27;;;;;;;;;;;2.30;98.00;;;;;;4973825;28;1527;-73
2022/12/09 12:15:59;;;;;;;;;;;2.30;97.60;;;;;;4973248;28;1976;-73
2022/12/09 12:18:30;;;;;;;;;;;2.40;97.70;;;;;;4973527;28;1280;-74
2022/12/09 12:21:09;;;;;;;;;;;2.50;97.60;;;;;;4976222;28;1683;-68
2022/12/09 12:23:46;;;;;;;;;;;2.30;97.80;;;;;;4976881;28;1225;-69
2022/12/09 12:26:23;;;;;;;;;;;2.40;98.10;;;;;;4977015;28;1145;-67
2022/12/09 12:29:09;;;;;;;;;;;2.50;98.10;;;;;;4977406;28;1847;-69
2022/12/09 12:31:51;;;;;;;;;;;2.50;98.10;;;;;;4977397;28;1013;-68
2022/12/09 12:34:25;;;;;;;;;;;2.40;98.20;;;;;;4977024;28;1383;-68
2022/12/09 12:36:56;;;;;;;;;;;2.40;98.50;;;;;;4976887;28;1977;-68
2022/12/09 12:39:31;;;;;;;;;;;2.40;97.90;;;;;;4977780;28;1309;-68
2022/12/09 12:42:03;;;;;;;;;;;2.30;98.40;;;;;;4976912;28;1045;-68
2022/12/09 12:47:26;;;;;;;;;;;2.20;97.80;;;;;;4976679;28;1381;-68
2022/12/09 12:50:02;;;;;;;;;;;2.20;98.00;;;;;;4976407;28;1570;-68
2022/12/09 12:52:35;;;;;;;;;;;2.20;98.20;;;;;;4976359;28;1679;-68
2022/12/09 12:55:28;;;;;;;;;;;2.30;97.90;;;;;;4977247;28;1495;-73
2022/12/09 12:58:00;;;;;;;;;;;2.30;98.00;;;;;;4977352;28;1170;-72
2022/12/09 13:00:32;;;;;;;;;;;2.40;97.70;;;;;;4975948;28;1659;-69
2022/12/09 13:03:06;;;;;;;;;;;2.40;97.60;;;;;;4972762;28;1698;-74
2022/12/09 13:05:41;;;;;;;;;;;2.40;97.70;;;;;;4977082;28;1300;-75
2022/12/09 13:08:11;;;;;;;;;;;2.40;97.50;;;;;;4974366;28;1516;-74
2022/12/09 13:10:40;;;;;;;;;;;2.40;97.80;;;;;;4977189;28;1241;-74
2022/12/09 13:13:14;;;;;;;;;;;2.30;97.60;;;;;;4975000;28;1380;-74
2022/12/09 13:15:43;;;;;;;;;;;2.30;97.80;;;;;;4974642;28;2001;-75
2022/12/09 13:18:12;;;;;;;;;;;2.30;98.20;;;;;;4970722;28;1485;-76
2022/12/09 13:20:47;;;;;;;;;;;2.30;98.00;;;;;;4974618;28;1557;-75
2022/12/09 13:23:21;;;;;;;;;;;2.30;98.60;;;;;;4973995;28;1291;-74
2022/12/09 13:25:52;;;;;;;;;;;2.30;97.80;;;;;;4974926;28;1232;-77
2022/12/09 13:28:23;;;;;;;;;;;2.20;97.90;;;;;;4973459;28;1090;-75
2022/12/09 13:30:52;;;;;;;;;;;2.20;97.90;;;;;;4972628;28;1063;-74
2022/12/09 13:36:16;;;;;;;;;;;2.20;98.20;;;;;;4933296;29;2170;-75
2022/12/09 13:38:45;;;;;;;;;;;2.20;98.30;;;;;;4936546;28;1493;-75
2022/12/09 13:42:51;;;;;;;;;;;2.10;98.60;;;;;;4974207;28;1042;-74
2022/12/09 13:44:20;;;;;;;;;;;2.10;98.70;;;;;;4974840;28;1394;-74
2022/12/09 13:46:47;;;;;;;;;;;2.10;98.40;;;;;;4976758;28;1517;-73
2022/12/09 13:49:18;;;;;;;;;;;2.10;98.70;;;;;;4975053;28;1247;-74
2022/12/09 13:51:47;;;;;;;;;;;2.10;98.80;;;;;;4975132;28;1034;-73
2022/12/09 13:54:16;;;;;;;;;;;2.20;98.60;;;;;;4975064;28;1545;-75
2022/12/09 13:56:46;;;;;;;;;;;2.20;98.60;;;;;;4974937;28;1902;-73
2022/12/09 13:59:32;;;;;;;;;;;2.10;98.40;;;;;;4974098;28;1125;-74
2022/12/09 14:02:01;;;;;;;;;;;2.10;98.60;;;;;;4975961;28;1470;-75
2022/12/09 14:04:30;;;;;;;;;;;2.00;98.70;;;;;;4975791;28;1295;-75
2022/12/09 14:07:04;;;;;;;;;;;1.90;98.60;;;;;;4974934;28;1086;-73
2022/12/09 14:09:39;;;;;;;;;;;1.90;98.30;;;;;;4975088;28;1675;-74
2022/12/09 14:12:10;;;;;;;;;;;2.00;98.30;;;;;;4975339;28;1011;-73
2022/12/09 14:14:46;;;;;;;;;;;1.90;98.10;;;;;;4975057;28;1512;-74
2022/12/09 14:17:32;;;;;;;;;;;2.10;98.40;;;;;;4974276;28;2201;-74
2022/12/09 14:20:01;;;;;;;;;;;1.90;98.30;;;;;;4961378;28;1316;-74
2022/12/09 14:22:35;;;;;;;;;;;1.90;98.30;;;;;;4975767;28;1221;-73
2022/12/09 14:25:17;;;;;;;;;;;1.80;98.40;;;;;;4975922;28;1240;-73
2022/12/09 14:28:08;;;;;;;;;;;1.90;98.80;;;;;;4934202;28;1232;-72
2022/12/09 14:30:48;;;;;;;;;;;2.00;98.90;;;;;;4973691;28;1234;-71
2022/12/09 14:33:20;;;;;;;;;;;2.10;98.60;;;;;;4974035;28;2584;-70
2022/12/09 14:35:50;;;;;;;;;;;2.20;98.20;;;;;;4974765;28;1114;-69
2022/12/09 14:38:22;;;;;;;;;;;2.30;98.30;;;;;;4973909;28;1996;-71
2022/12/09 14:40:56;;;;;;;;;;;2.40;98.10;;;;;;4975921;28;1644;-71
2022/12/09 14:43:44;;;;;;;;;;;2.40;97.80;;;;;;4975042;28;1450;-72
2022/12/09 14:46:29;;;;;;;;;;;2.50;97.70;;;;;;4975036;28;1042;-69
2022/12/09 14:48:58;;;;;;;;;;;2.50;97.50;;;;;;4974693;28;1458;-70
2022/12/09 14:51:27;;;;;;;;;;;2.50;97.70;;;;;;4974609;28;1141;-71
2022/12/09 14:53:57;;;;;;;;;;;2.50;97.50;;;;;;4974220;28;1398;-69
2022/12/09 14:56:25;;;;;;;;;;;2.60;97.20;;;;;;4974610;28;1160;-70
2022/12/09 14:58:56;;;;;;;;;;;2.60;97.10;;;;;;4973872;28;1910;-70
2022/12/09 15:01:23;;;;;;;;;;;2.50;97.40;;;;;;4974044;28;1149;-70
2022/12/09 15:03:54;;;;;;;;;;;2.70;97.50;;;;;;4974659;28;1315;-70
2022/12/09 15:06:25;;;;;;;;;;;2.40;97.30;;;;;;4974231;28;1033;-70
2022/12/09 15:08:56;;;;;;;;;;;2.30;97.60;;;;;;4974213;28;1094;-70
2022/12/09 15:11:26;;;;;;;;;;;2.20;97.90;;;;;;4973360;28;1505;-71
2022/12/09 15:13:55;;;;;;;;;;;2.20;97.60;;;;;;4973981;28;1699;-71
2022/12/09 15:16:24;;;;;;;;;;;2.00;97.80;;;;;;4972535;28;1097;-71
2022/12/09 15:18:54;;;;;;;;;;;2.20;98.20;;;;;;4973598;28;1910;-69
2022/12/09 15:21:27;;;;;;;;;;;1.90;98.10;;;;;;4973731;28;1764;-71
2022/12/09 15:23:55;;;;;;;;;;;1.90;98.60;;;;;;4973786;28;1516;-69
2022/12/09 15:26:24;;;;;;;;;;;1.90;98.60;;;;;;4973375;28;1514;-70
2022/12/09 15:28:54;;;;;;;;;;;1.90;98.50;;;;;;4974542;28;1079;-72
2022/12/09 15:31:22;;;;;;;;;;;2.20;98.60;;;;;;4974477;28;1699;-70
2022/12/09 15:33:51;;;;;;;;;;;1.90;98.20;;;;;;4973846;28;1612;-71
2022/12/09 15:36:24;;;;;;;;;;;1.90;98.30;;;;;;4974261;28;1068;-71
2022/12/09 15:38:53;;;;;;;;;;;1.90;98.20;;;;;;4974113;28;1998;-69
2022/12/09 15:44:07;;;;;;;;;;;2.10;97.80;;;;;;4974050;28;1418;-69
2022/12/09 15:46:35;;;;;;;;;;;1.80;98.20;;;;;;4973854;28;1127;-70
2022/12/09 15:49:03;;;;;;;;;;;1.90;98.50;;;;;;4973893;28;1098;-69
2022/12/09 15:51:33;;;;;;;;;;;1.70;98.30;;;;;;4973842;28;1071;-70
2022/12/09 15:54:02;;;;;;;;;;;1.60;98.20;;;;;;4974029;28;1297;-71